• Join FlightAware (Why Join?)
  • Login
  • US Flag 
08:00AM EDT


 

Airport Tracker/Info


-or-


 

Live Flight TrackerFlight Track Log ✈ ASQ5941 ✈ 31-Oct-2013 ✈ KORD - KAVP

Flight Track Log - Related Links

Times and Time Zones

All times are in EDT time to prevent confusion due to time zone crossing. See the ASQ5941 flight status page for this flight to view local times or setup timezone preferences in your user account.

Time Position Orientation Groundspeed Altitude Reporting Facility
EDT Latitude Longitude Course Direction KTS MPH feet Rate Location/Type
03:38PM 42.0000 -87.9500 71° East 178 205 1,900  Level Chicago TRACON
03:39PM 42.0667 -87.9167 20° North 236 272 3,500 1,800 Climbing Chicago TRACON
03:40PM 42.1000 -87.8500 56° Northeast 261 300 5,600 2,100 Climbing Chicago TRACON
03:41PM 41.9808 -87.4092 75° East  Level Estimated
03:41PM 42.1000 -87.7500 90° East 265 305 7,800  Level Chicago TRACON
03:42PM 41.9800 -87.2434 80° East  Level Estimated
03:42PM 42.1000 -87.6500 90° East 291 335 9,700  Level Chicago TRACON
03:43PM 41.9790 -87.0776 90° East  Level Estimated
03:43PM 42.1056 -87.5758 84° East 286 329 10,700  Level Chicago Center
03:44PM 42.0190 -86.9207 71° East  Level FlightAware Approximate
03:44PM 42.1072 -87.4606 89° East 303 349 12,400  Level Chicago Center
03:45PM 42.1083 -87.3347 89° East 329 379 13,300 780 Climbing Chicago Center
03:46PM 42.1114 -87.1931 88° East 370 426 14,100 900 Climbing Chicago Center
03:47PM 42.1133 -87.0425 89° East 394 453 15,200 1,260 Climbing Chicago Center
03:48PM 42.1189 -86.8561 88° East 413 475 16,800 1,500 Climbing Chicago Center
03:49PM 42.1258 -86.7028 86° East 412 474 18,300 1,200 Climbing Chicago Center
03:50PM 42.1300 -86.5614 88° East 419 482 19,300 1,020 Climbing Chicago Center
03:51PM 42.1369 -86.3683 87° East 429 494 20,500 1,080 Climbing Chicago Center
03:52PM 42.1417 -86.2047 88° East 435 501 21,600 960 Climbing Chicago Center
03:53PM 42.1431 -86.0378 89° East 444 511 22,600 960 Climbing Chicago Center
03:54PM 42.1417 -85.8522 91° East 444 511 23,700 900 Climbing Chicago Center
03:56PM 42.1408 -85.6819 90° East 454 522 24,500 720 Climbing Chicago Center
03:57PM 42.1389 -85.5083 91° East 464 534 25,300 840 Climbing Chicago Center
03:58PM 42.1372 -85.3336 91° East 469 540 26,300 900 Climbing Chicago Center
03:59PM 42.1361 -85.1525 90° East 482 555 27,200 900 Climbing Chicago Center
04:00PM 42.1317 -84.9378 92° East 482 555 28,200 840 Climbing Chicago Center
04:01PM 42.1289 -84.7558 91° East 486 559 29,000 780 Climbing Chicago Center
04:02PM 42.1244 -84.5714 92° East 494 568 29,900 840 Climbing Chicago Center
04:03PM 42.1319 -84.3828 87° East 504 580 30,800 600 Climbing Chicago Center
04:03PM 42.1467 -84.2533 81° East 516 594 31,000 60 Climbing Cleveland Center
04:04PM 42.1686 -84.0561 81° East 531 611 31,000  Level Cleveland Center
04:06PM 42.1939 -83.8228 82° East 528 608 31,000 120 Level Cleveland Center
04:07PM 42.2142 -83.6294 82° East 526 605 31,300 600 Climbing Cleveland Center
04:08PM 42.2317 -83.4311 83° East 525 604 32,300 780 Climbing Cleveland Center
04:09PM 42.2300 -83.2400 91° East 508 585 33,000 300 Climbing Cleveland Center
04:10PM 42.2319 -83.0258 89° East 523 602 33,000  Level Cleveland Center
04:11PM 42.2328 -82.8281 90° East 529 609 33,000  Level Cleveland Center
04:12PM 42.2297 -82.6319 91° East 525 604 33,000  Level Cleveland Center
04:13PM 42.2081 -82.4383 99° East 522 601 33,000  Level Cleveland Center
04:14PM 42.1869 -82.2489 98° East 516 594 33,000  Level Cleveland Center
04:15PM 42.1631 -82.0261 98° East 519 597 33,000  Level Cleveland Center
04:16PM 42.1408 -81.8325 99° East 518 596 33,000  Level Cleveland Center
04:17PM 42.1192 -81.6411 99° East 513 590 33,000  Level Cleveland Center
04:18PM 42.0972 -81.4536 99° East 504 580 33,000  Level Cleveland Center
04:19PM 42.0761 -81.2675 99° East 499 574 33,000  Level Cleveland Center
04:20PM 42.0531 -81.0819 99° East 497 572 33,000  Level Cleveland Center
04:21PM 42.0308 -80.8942 99° East 501 577 33,000  Level Cleveland Center
04:22PM 42.0050 -80.6731 99° East 506 582 33,000  Level Cleveland Center
04:23PM 41.9811 -80.4833 100° East 508 585 33,000  Level Cleveland Center
04:24PM 41.9578 -80.2931 99° East 512 589 33,000  Level Cleveland Center
04:25PM 41.9331 -80.1036 100° East 512 589 33,000 -180 Level Cleveland Center
04:26PM 41.9089 -79.9125 100° East 513 590 32,700 -600 Descending Cleveland Center
04:27PM 41.8831 -79.7231 100° East 512 589 31,800 -840 Descending Cleveland Center
04:28PM 41.8592 -79.5428 100° East 508 585 31,000 -780 Descending Cleveland Center
04:29PM 41.8297 -79.3233 100° East 502 578 30,200 -1,020 Descending Cleveland Center
04:30PM 41.8033 -79.1303 100° East 509 586 28,900 -1,380 Descending Cleveland Center
04:31PM 41.7781 -78.9450 100° East 509 586 27,400 -1,380 Descending Cleveland Center
04:32PM 41.7519 -78.7683 101° East 502 578 26,100 -720 Descending Cleveland Center
04:33PM 41.7267 -78.5853 100° East 501 577 26,000 -60 Descending Cleveland Center
04:34PM 41.6953 -78.3678 101° East 498 573 26,000  Level Cleveland Center
04:36PM 41.6686 -78.1864 101° East 497 572 26,000 -60 Level Cleveland Center
04:37PM 41.6408 -78.0042 101° East 499 574 25,900 -720 Descending Cleveland Center
04:38PM 41.6142 -77.8219 101° East 501 577 24,600 -1,320 Descending Cleveland Center
04:39PM 41.5872 -77.6411 101° East 500 575 23,200 -1,140 Descending Cleveland Center
04:40PM 41.5583 -77.4619 102° East 498 573 22,300 -1,500 Descending Cleveland Center
04:41PM 41.5289 -77.2631 101° East 464 534 20,100 -2,280 Descending Cleveland Center
04:42PM 41.5064 -77.1108 101° East 430 495 17,600 -2,400 Descending Cleveland Center
04:43PM 41.4825 -76.9628 102° East 416 479 15,200 -2,160 Descending Cleveland Center
04:44PM 41.4581 -76.8153 102° East 413 475 13,200 -1,920 Descending Cleveland Center
04:45PM 41.4369 -76.6764 101° East 396 456 11,300 -1,560 Descending Cleveland Center
04:46PM 41.4119 -76.5289 103° East 355 409 10,000 -1,200 Descending Cleveland Center
04:47PM 41.3961 -76.4264 102° East 316 364 8,900 -540 Descending Cleveland Center
04:48PM 41.3772 -76.3164 103° East 305 351 8,900 -300 Level Cleveland Center
04:49PM 41.3606 -76.2086 102° East 302 348 8,300 -1,080 Descending Cleveland Center
04:50PM 41.3775 -76.0878 79° East 285 328 6,700 -1,800 Descending New York Center
04:51PM 41.4319 -75.9869 54° Northeast 291 335 4,600 -1,380 Descending New York Center
04:52PM 41.4753 -75.8989 57° Northeast 291 335 4,000 -300 Descending New York Center
04:53PM 41.4981 -75.8036 72° East 278 320 4,000  Level New York Center
04:54PM 41.5186 -75.7108 73° East 266 306 4,000 -120 Level New York Center
04:55PM 41.5267 -75.6200 83° East 260 299 3,800 -180 Descending New York Center
04:56PM 41.4814 -75.6058 167° South 160 184 3,700 -300 Descending New York Center
04:57PM 41.4428 -75.6306 206° Southwest 136 157 3,300 -540 Descending New York Center
04:58PM 41.4169 -75.6536 214° Southwest 130 150 2,700 -600 Descending New York Center